Appleton, Idaho
Current Conditions -  °F | °C
As of 7:53 AM on Sunday 21 Dec 2014 (Local Time) from KJER Reporting Station
Light Rain Light Rain  
Wind Chill: 37°   Ceiling: 2700
Heat Index: 44°   Visibility: 10mi
Dew Point: 40°   Wind: 16mph
Humidity: 85%   Direction: 230°SW
Pressure: 29.84"   Gusts: NA
Location:  42.7238°N, 114.338°W
Report Text: KJER 211453Z AUTO 23014KT 10SM -RA BKN027 OVC036 07/04 A2984 RMK AO2 SLP107 P0001 60006 T00670044 55005
Loading
Personal Weather Stations






























Interactive Weather Map New forecast layout! Learn more

10-Day Weather Forecast

Advertisements
Track Severe Weather on mobile